Time;durP1;ratioP1;P1;durP2;ratioP2;P2;SDS_P1;SDS_P2;PMS_P1;PMS_P2;Temp;Humidity;BMP_temperature;BMP_pressure;BME280_temperature;BME280_humidity;BME280_pressure;Samples;Min_cycle;Max_cycle;Signal;HPM_P1;HPM_P2
2022/06/26 00:00:45;;;;;;;15.57;12.15;;;17.80;99.90;;;;;;5018532;28;20405;-84
2022/06/26 00:03:10;;;;;;;13.70;11.90;;;17.70;99.90;;;;;;5018492;28;20025;-85
2022/06/26 00:05:36;;;;;;;22.25;11.75;;;17.70;99.90;;;;;;5018511;28;20026;-86
2022/06/26 00:08:02;;;;;;;19.23;11.98;;;17.70;99.90;;;;;;5018416;28;20471;-85
2022/06/26 00:10:28;;;;;;;15.18;11.80;;;17.70;99.90;;;;;;5018589;28;20421;-86
2022/06/26 00:12:53;;;;;;;18.25;12.55;;;17.70;99.90;;;;;;5018238;28;20030;-86
2022/06/26 00:15:19;;;;;;;13.65;11.80;;;17.60;99.90;;;;;;5018292;28;20033;-86
2022/06/26 00:17:44;;;;;;;16.13;12.38;;;17.70;99.90;;;;;;5018312;28;20031;-85
2022/06/26 00:20:10;;;;;;;15.63;13.32;;;17.60;99.90;;;;;;5018131;28;20474;-85
2022/06/26 00:22:36;;;;;;;14.57;13.13;;;17.70;99.90;;;;;;5018173;28;20124;-85
2022/06/26 00:25:02;;;;;;;14.70;12.85;;;17.60;99.90;;;;;;5018130;28;20109;-85
2022/06/26 00:27:28;;;;;;;17.15;13.40;;;17.60;99.90;;;;;;5018100;28;20026;-85
2022/06/26 00:29:53;;;;;;;14.82;13.27;;;17.60;99.90;;;;;;5018155;28;20030;-85
2022/06/26 00:32:19;;;;;;;14.00;11.88;;;17.60;99.90;;;;;;5035602;28;20040;-85
2022/06/26 00:34:44;;;;;;;15.32;12.85;;;17.60;99.90;;;;;;5017814;28;20029;-85
2022/06/26 00:37:10;;;;;;;17.35;13.80;;;17.60;99.90;;;;;;5017718;28;20107;-85
2022/06/26 00:39:36;;;;;;;17.42;14.60;;;17.60;99.90;;;;;;5017754;28;20565;-84
2022/06/26 00:42:01;;;;;;;16.75;14.35;;;17.60;99.90;;;;;;5017842;28;20035;-84
2022/06/26 00:44:27;;;;;;;21.23;14.70;;;17.60;99.90;;;;;;5017664;28;20044;-85
2022/06/26 00:46:53;;;;;;;20.70;14.75;;;17.60;99.90;;;;;;5017585;28;20034;-85
2022/06/26 00:49:19;;;;;;;17.77;15.07;;;17.60;99.90;;;;;;5016707;28;20025;-85
2022/06/26 00:51:49;;;;;;;17.55;15.55;;;17.60;99.90;;;;;;5018093;28;20123;-84
2022/06/26 00:54:15;;;;;;;17.65;14.77;;;17.50;99.90;;;;;;5037644;28;20070;-85
2022/06/26 00:56:41;;;;;;;25.75;15.25;;;17.60;99.90;;;;;;5037245;28;20037;-85
2022/06/26 00:59:07;;;;;;;18.77;14.52;;;17.60;99.90;;;;;;5037215;28;20045;-84
2022/06/26 01:01:36;;;;;;;17.75;13.82;;;17.60;99.90;;;;;;5037275;28;20175;-85
2022/06/26 01:04:02;;;;;;;18.40;13.90;;;17.60;99.90;;;;;;5037043;28;20028;-85
2022/06/26 01:06:29;;;;;;;17.85;14.73;;;17.60;99.90;;;;;;5037001;28;20032;-84
2022/06/26 01:08:56;;;;;;;18.08;14.85;;;17.60;99.90;;;;;;5036978;28;20021;-84
2022/06/26 01:11:25;;;;;;;16.35;13.95;;;17.60;99.90;;;;;;5036972;28;20469;-84
2022/06/26 01:13:54;;;;;;;24.52;14.60;;;17.60;99.90;;;;;;5037046;28;20031;-84
2022/06/26 01:16:20;;;;;;;16.15;14.27;;;17.60;99.90;;;;;;5036856;28;20029;-85
2022/06/26 01:18:48;;;;;;;17.92;14.15;;;17.60;99.90;;;;;;5036596;28;20052;-84
2022/06/26 01:21:18;;;;;;;15.18;13.57;;;17.60;99.90;;;;;;5036991;28;20117;-84
2022/06/26 01:23:46;;;;;;;19.42;13.77;;;17.50;99.90;;;;;;5036990;28;20028;-84
2022/06/26 01:26:12;;;;;;;13.88;12.45;;;17.50;99.90;;;;;;5036654;28;20021;-84
2022/06/26 01:28:38;;;;;;;15.85;12.98;;;17.50;99.90;;;;;;5036581;28;20017;-85
2022/06/26 01:31:03;;;;;;;13.75;11.80;;;17.50;99.90;;;;;;5054222;28;20385;-84
2022/06/26 01:33:29;;;;;;;12.65;11.35;;;17.40;99.90;;;;;;5036545;28;20086;-84
2022/06/26 01:35:55;;;;;;;18.70;12.75;;;17.40;99.90;;;;;;5054134;28;20049;-84
2022/06/26 01:38:23;;;;;;;14.38;12.82;;;17.40;99.90;;;;;;5054143;28;20025;-85
2022/06/26 01:40:51;;;;;;;16.05;13.35;;;17.40;99.90;;;;;;5036362;28;20025;-84
2022/06/26 01:43:19;;;;;;;15.55;13.07;;;17.40;99.90;;;;;;5054170;28;20086;-84
2022/06/26 01:45:47;;;;;;;16.55;14.02;;;17.40;99.90;;;;;;5036229;28;20403;-84
2022/06/26 01:48:13;;;;;;;19.48;14.27;;;17.40;99.90;;;;;;5036436;28;20386;-84
2022/06/26 01:50:39;;;;;;;17.77;14.80;;;17.30;99.90;;;;;;5033067;28;20021;-84
2022/06/26 01:53:05;;;;;;;16.08;14.45;;;17.40;99.90;;;;;;5032996;28;20022;-84
2022/06/26 01:55:31;;;;;;;19.60;15.48;;;17.40;99.90;;;;;;5016392;28;20021;-84
2022/06/26 01:57:57;;;;;;;16.83;15.07;;;17.30;99.90;;;;;;5032930;28;20026;-84
2022/06/26 02:00:22;;;;;;;21.75;15.80;;;17.40;99.90;;;;;;5032463;28;20022;-84
2022/06/26 02:02:48;;;;;;;19.52;15.07;;;17.40;99.90;;;;;;5032976;28;20543;-84
2022/06/26 02:05:13;;;;;;;21.23;15.70;;;17.40;99.90;;;;;;5032654;28;20028;-84
2022/06/26 02:07:39;;;;;;;21.83;16.73;;;17.40;99.90;;;;;;5032740;28;20037;-84
2022/06/26 02:15:34;;;;;;;18.33;16.05;;;17.40;99.90;;;;;;5033904;28;20087;-84
2022/06/26 02:17:59;;;;;;;22.52;16.98;;;17.40;99.90;;;;;;5032394;28;20029;-84
2022/06/26 02:20:25;;;;;;;18.83;16.35;;;17.40;99.90;;;;;;5032615;28;20018;-84
2022/06/26 02:22:50;;;;;;;18.58;16.05;;;17.30;99.90;;;;;;5032650;28;20040;-84
2022/06/26 02:25:16;;;;;;;17.92;15.85;;;17.30;99.90;;;;;;5032488;28;20021;-84
2022/06/26 02:27:41;;;;;;;18.85;15.32;;;17.30;99.90;;;;;;5032195;28;20030;-84
2022/06/26 02:30:07;;;;;;;19.40;16.90;;;17.30;99.90;;;;;;5032356;28;20496;-84
2022/06/26 02:32:33;;;;;;;21.98;16.15;;;17.30;99.90;;;;;;5032468;28;20056;-84
2022/06/26 02:34:58;;;;;;;19.05;16.05;;;17.30;99.90;;;;;;5032344;28;20026;-83
2022/06/26 02:37:24;;;;;;;21.95;15.95;;;17.30;99.90;;;;;;5032022;28;20045;-84
2022/06/26 02:39:49;;;;;;;19.90;17.20;;;17.30;99.90;;;;;;5032514;28;20044;-84
2022/06/26 02:42:15;;;;;;;20.63;17.83;;;17.30;99.90;;;;;;5032257;28;20025;-83
2022/06/26 02:44:40;;;;;;;20.52;18.33;;;17.20;99.90;;;;;;5032454;28;20409;-84
2022/06/26 02:47:06;;;;;;;21.10;16.35;;;17.30;99.90;;;;;;5032366;28;20181;-84
2022/06/26 02:49:32;;;;;;;23.30;19.10;;;17.20;99.90;;;;;;5036463;28;20063;-84
2022/06/26 02:51:57;;;;;;;24.48;18.92;;;17.20;99.90;;;;;;5035593;28;20027;-84
2022/06/26 02:54:23;;;;;;;22.38;17.50;;;17.10;99.90;;;;;;5035577;28;20091;-84
2022/06/26 02:56:48;;;;;;;22.02;18.90;;;17.00;99.90;;;;;;5053002;28;20543;-84
2022/06/26 02:59:14;;;;;;;22.92;17.98;;;17.00;99.90;;;;;;5035258;28;20032;-84
2022/06/26 03:01:39;;;;;;;24.20;18.40;;;17.00;99.90;;;;;;5035447;28;20520;-83
2022/06/26 03:04:05;;;;;;;25.13;19.73;;;16.90;99.90;;;;;;5035469;28;20021;-84
2022/06/26 03:06:31;;;;;;;25.98;19.90;;;16.90;99.90;;;;;;5035331;28;20120;-84
2022/06/26 03:08:56;;;;;;;24.77;18.25;;;16.90;99.90;;;;;;5035306;28;20041;-84
2022/06/26 03:11:22;;;;;;;23.30;18.40;;;16.90;99.90;;;;;;5036138;28;20029;-84
2022/06/26 03:13:47;;;;;;;26.13;19.92;;;16.90;99.90;;;;;;5039213;28;20021;-83
2022/06/26 03:16:13;;;;;;;24.83;19.65;;;16.90;99.90;;;;;;5039355;28;20037;-84
2022/06/26 03:18:38;;;;;;;29.98;19.80;;;16.90;99.90;;;;;;5038883;28;20052;-84
2022/06/26 03:21:04;;;;;;;28.13;19.83;;;16.90;99.90;;;;;;5038998;28;20055;-84
2022/06/26 03:26:13;;;;;;;25.88;18.88;;;16.90;99.90;;;;;;5057438;28;20058;-84
2022/06/26 03:28:39;;;;;;;25.92;19.00;;;16.90;99.90;;;;;;5038919;28;20116;-83
2022/06/26 03:31:05;;;;;;;26.92;19.73;;;16.90;99.90;;;;;;5038823;28;20576;-84
2022/06/26 03:33:30;;;;;;;28.70;19.40;;;16.90;99.90;;;;;;5039011;28;20507;-84
2022/06/26 03:35:56;;;;;;;22.92;18.52;;;16.90;99.90;;;;;;5038553;28;20072;-84
2022/06/26 03:38:21;;;;;;;26.90;19.77;;;16.90;99.90;;;;;;5038735;28;20021;-85
2022/06/26 03:40:47;;;;;;;24.15;19.90;;;16.90;99.90;;;;;;5038426;28;20485;-84
2022/06/26 03:43:12;;;;;;;26.83;19.65;;;16.90;99.90;;;;;;5038590;28;20013;-84
2022/06/26 03:45:38;;;;;;;28.50;19.63;;;16.90;99.90;;;;;;5038522;28;20028;-85
2022/06/26 03:48:04;;;;;;;24.17;18.92;;;16.90;99.90;;;;;;5035387;28;20025;-84
2022/06/26 03:50:30;;;;;;;27.65;19.60;;;16.90;99.90;;;;;;5018538;28;20018;-84
2022/06/26 03:52:55;;;;;;;29.15;19.88;;;16.80;99.90;;;;;;5018659;28;20026;-84
2022/06/26 03:55:21;;;;;;;32.05;21.30;;;16.70;99.90;;;;;;5018477;28;20093;-83
2022/06/26 03:57:48;;;;;;;29.25;21.45;;;16.70;99.90;;;;;;5018621;28;20038;-84
2022/06/26 04:00:14;;;;;;;29.33;22.70;;;16.60;99.90;;;;;;5018735;28;20045;-84
2022/06/26 04:02:40;;;;;;;30.42;22.35;;;16.60;99.90;;;;;;5018678;28;20064;-84
2022/06/26 04:05:08;;;;;;;36.88;24.88;;;16.50;99.90;;;;;;5018535;28;20024;-84
2022/06/26 04:07:33;;;;;;;32.58;24.13;;;16.50;99.90;;;;;;5018560;28;20024;-84
2022/06/26 04:09:59;;;;;;;27.73;21.90;;;16.50;99.90;;;;;;5018008;28;20025;-85
2022/06/26 04:12:25;;;;;;;35.22;22.25;;;16.40;99.90;;;;;;5018516;28;20057;-84
2022/06/26 04:14:50;;;;;;;36.40;23.42;;;16.40;99.90;;;;;;5018453;28;20025;-84
2022/06/26 04:17:16;;;;;;;35.97;24.45;;;16.30;99.90;;;;;;5018076;28;20033;-84
2022/06/26 04:19:42;;;;;;;30.08;22.60;;;16.30;99.90;;;;;;5018323;28;20045;-85
2022/06/26 04:22:08;;;;;;;33.20;23.92;;;16.30;99.90;;;;;;5018115;28;20030;-85
2022/06/26 04:24:33;;;;;;;41.95;23.92;;;16.30;99.90;;;;;;5018132;28;20492;-84
2022/06/26 04:26:59;;;;;;;29.35;22.60;;;16.30;99.90;;;;;;5018162;28;20056;-84
2022/06/26 04:29:25;;;;;;;36.47;23.50;;;16.30;99.90;;;;;;5017987;28;20599;-85
2022/06/26 04:31:50;;;;;;;30.35;21.48;;;16.30;99.90;;;;;;5018172;28;20022;-85
2022/06/26 04:34:16;;;;;;;26.27;19.63;;;16.30;99.90;;;;;;5035631;28;20390;-85
2022/06/26 04:36:41;;;;;;;26.02;17.90;;;16.20;99.90;;;;;;5018019;28;20176;-85
2022/06/26 04:39:07;;;;;;;29.38;18.75;;;16.20;99.90;;;;;;5017828;28;20033;-84
2022/06/26 04:41:36;;;;;;;26.95;16.35;;;16.20;99.90;;;;;;5035196;28;20105;-84
2022/06/26 04:44:07;;;;;;;25.98;16.75;;;16.20;99.90;;;;;;5035312;28;20032;-85
2022/06/26 04:46:33;;;;;;;23.70;15.25;;;16.20;99.90;;;;;;5017842;28;20025;-85
2022/06/26 04:48:58;;;;;;;23.05;15.40;;;16.20;99.90;;;;;;5017560;28;20375;-84
2022/06/26 04:51:24;;;;;;;26.00;16.75;;;16.20;99.90;;;;;;5035168;28;20025;-85
2022/06/26 04:53:50;;;;;;;24.58;15.50;;;16.20;99.90;;;;;;5035028;28;20021;-85
2022/06/26 04:56:16;;;;;;;23.17;16.15;;;16.40;99.90;;;;;;5017674;28;20121;-85
2022/06/26 04:58:41;;;;;;;20.23;14.45;;;16.60;99.90;;;;;;5017667;28;20021;-85
2022/06/26 05:01:07;;;;;;;19.45;14.98;;;16.70;99.90;;;;;;5017403;28;20096;-85
2022/06/26 05:03:33;;;;;;;23.40;15.43;;;16.90;99.90;;;;;;5017496;28;20123;-85
2022/06/26 05:05:58;;;;;;;21.30;15.02;;;17.00;99.90;;;;;;5017465;28;20113;-85
2022/06/26 05:08:24;;;;;;;18.52;13.05;;;17.10;99.90;;;;;;5017472;28;20049;-85
2022/06/26 05:10:50;;;;;;;19.05;13.32;;;17.30;99.90;;;;;;5017237;28;20076;-84
2022/06/26 05:13:15;;;;;;;23.65;14.07;;;17.50;99.90;;;;;;5017009;28;20032;-85
2022/06/26 05:15:41;;;;;;;18.83;12.60;;;17.60;99.90;;;;;;5017072;28;20120;-85
2022/06/26 05:18:07;;;;;;;19.00;13.07;;;17.70;99.90;;;;;;5017005;28;20029;-85
2022/06/26 05:20:33;;;;;;;15.95;12.57;;;17.80;99.90;;;;;;5017143;28;20021;-84
2022/06/26 05:22:58;;;;;;;14.95;10.82;;;17.90;99.90;;;;;;5017066;28;20067;-85
2022/06/26 05:25:24;;;;;;;15.27;11.27;;;18.10;99.90;;;;;;5016887;28;20057;-85
2022/06/26 05:27:49;;;;;;;14.25;11.07;;;18.20;99.90;;;;;;5017337;28;20040;-85
2022/06/26 05:30:15;;;;;;;12.52;10.00;;;18.30;99.90;;;;;;5017106;28;20033;-84
2022/06/26 05:32:41;;;;;;;12.82;10.07;;;18.30;99.90;;;;;;5016787;28;20023;-84
2022/06/26 05:35:07;;;;;;;13.68;10.07;;;18.30;99.90;;;;;;5016124;28;20033;-85
2022/06/26 05:37:32;;;;;;;16.05;10.13;;;18.30;99.90;;;;;;5016578;28;20037;-85
2022/06/26 05:39:58;;;;;;;12.82;9.93;;;18.20;99.90;;;;;;5016692;28;20112;-85
2022/06/26 05:42:23;;;;;;;13.10;9.32;;;18.20;99.90;;;;;;5016830;28;20053;-85
2022/06/26 05:44:49;;;;;;;11.50;8.20;;;18.30;99.90;;;;;;5016646;28;20499;-84
2022/06/26 05:47:14;;;;;;;11.30;9.20;;;18.40;99.90;;;;;;5016708;28;20406;-84
2022/06/26 05:49:40;;;;;;;10.45;8.25;;;18.40;99.90;;;;;;5016563;28;20075;-85
2022/06/26 05:52:06;;;;;;;12.02;8.68;;;18.40;99.90;;;;;;5016620;28;20052;-85
2022/06/26 05:54:32;;;;;;;11.45;7.72;;;18.30;99.90;;;;;;5016746;28;20028;-85
2022/06/26 05:56:57;;;;;;;12.15;7.97;;;18.30;99.90;;;;;;5016334;28;20029;-84
2022/06/26 05:59:23;;;;;;;12.90;8.25;;;18.30;99.90;;;;;;5016517;28;20111;-85
2022/06/26 06:01:49;;;;;;;10.88;8.20;;;18.30;99.90;;;;;;5016310;28;20056;-85
2022/06/26 06:04:14;;;;;;;12.38;7.93;;;18.40;99.90;;;;;;5016603;28;20448;-85
2022/06/26 06:06:40;;;;;;;9.63;7.20;;;18.40;99.90;;;;;;5016415;28;20026;-85
2022/06/26 06:09:05;;;;;;;13.77;8.05;;;18.40;99.90;;;;;;5016693;28;20035;-85
2022/06/26 06:11:31;;;;;;;12.52;6.70;;;18.40;99.90;;;;;;5016424;28;20041;-85
2022/06/26 06:13:57;;;;;;;12.52;7.80;;;18.40;99.90;;;;;;5033114;28;20025;-85
2022/06/26 06:16:23;;;;;;;10.50;6.43;;;18.30;99.90;;;;;;5016349;28;20091;-86
2022/06/26 06:18:48;;;;;;;11.07;7.53;;;18.40;99.90;;;;;;5016071;28;20057;-85
2022/06/26 06:21:14;;;;;;;9.05;6.88;;;18.50;99.90;;;;;;5016161;28;20040;-86
2022/06/26 06:23:42;;;;;;;8.43;6.25;;;18.60;99.90;;;;;;5016540;28;20033;-85
2022/06/26 06:26:08;;;;;;;7.57;5.63;;;18.70;99.90;;;;;;5016544;28;20018;-85
2022/06/26 06:28:34;;;;;;;8.75;5.75;;;18.80;99.90;;;;;;5016516;28;20123;-86
2022/06/26 06:31:00;;;;;;;9.52;5.70;;;18.90;99.90;;;;;;5016430;28;20049;-85
2022/06/26 06:33:25;;;;;;;8.80;5.50;;;18.90;99.90;;;;;;5016078;28;20031;-86
2022/06/26 06:35:54;;;;;;;11.70;5.65;;;18.90;99.90;;;;;;5015849;28;20136;-85
2022/06/26 06:38:20;;;;;;;9.20;5.55;;;18.90;99.90;;;;;;5016077;28;20470;-85
2022/06/26 06:40:47;;;;;;;7.43;5.43;;;19.00;99.90;;;;;;5016146;28;20026;-86
2022/06/26 06:43:13;;;;;;;8.68;6.57;;;19.10;99.90;;;;;;5016238;28;20025;-86
2022/06/26 06:45:39;;;;;;;7.63;5.18;;;19.30;99.90;;;;;;5015944;28;20025;-87
2022/06/26 06:48:05;;;;;;;9.45;5.30;;;19.50;99.90;;;;;;5019895;28;20033;-86
2022/06/26 06:50:31;;;;;;;7.22;5.57;;;19.60;99.90;;;;;;5019932;28;20100;-86
2022/06/26 06:52:56;;;;;;;9.40;5.13;;;19.60;99.90;;;;;;5037452;28;20026;-86
2022/06/26 06:55:22;;;;;;;9.20;5.10;;;19.60;99.90;;;;;;5019675;28;20731;-85
2022/06/26 06:57:48;;;;;;;7.40;3.95;;;19.60;99.90;;;;;;5019805;28;20041;-85
2022/06/26 07:00:13;;;;;;;7.32;4.47;;;19.80;99.90;;;;;;5019821;28;20021;-85
2022/06/26 07:02:39;;;;;;;6.22;4.07;;;19.90;99.90;;;;;;5019790;28;20029;-86
2022/06/26 07:05:06;;;;;;;5.32;3.35;;;20.00;99.90;;;;;;5019518;28;20021;-85
2022/06/26 07:07:32;;;;;;;5.78;3.75;;;20.20;99.90;;;;;;5019500;28;20492;-86
2022/06/26 07:09:57;;;;;;;7.45;4.05;;;20.30;99.90;;;;;;5019182;28;20025;-85
2022/06/26 07:12:24;;;;;;;5.20;3.50;;;20.40;99.90;;;;;;5019708;28;20029;-84
2022/06/26 07:14:49;;;;;;;7.53;3.28;;;20.50;99.90;;;;;;5019434;28;20022;-85
2022/06/26 07:17:15;;;;;;;5.50;2.67;;;20.70;99.90;;;;;;5019623;28;20116;-85
2022/06/26 07:19:40;;;;;;;6.85;2.92;;;20.80;99.90;;;;;;5019410;28;20030;-86
2022/06/26 07:22:06;;;;;;;5.93;2.85;;;20.90;99.90;;;;;;5019527;28;20032;-85
2022/06/26 07:24:32;;;;;;;4.80;2.40;;;21.00;99.90;;;;;;5019247;28;20030;-86
2022/06/26 07:26:58;;;;;;;4.93;2.15;;;21.10;99.90;;;;;;5019311;28;20021;-86
2022/06/26 07:29:23;;;;;;;5.88;2.55;;;21.20;99.90;;;;;;5035655;28;20022;-86
2022/06/26 07:31:49;;;;;;;3.92;2.60;;;21.20;99.90;;;;;;5018975;28;20025;-85
2022/06/26 07:34:17;;;;;;;6.13;2.35;;;21.20;99.90;;;;;;5019099;28;20026;-86
2022/06/26 07:36:46;;;;;;;4.68;2.53;;;21.30;99.90;;;;;;5035420;28;20128;-86
2022/06/26 07:39:13;;;;;;;5.50;3.30;;;21.40;99.90;;;;;;5019090;28;20032;-85
2022/06/26 07:41:39;;;;;;;5.68;3.15;;;21.40;99.90;;;;;;5018925;28;20032;-86
2022/06/26 07:44:06;;;;;;;5.53;3.38;;;21.30;99.90;;;;;;5018969;28;20028;-85
2022/06/26 07:46:32;;;;;;;7.35;3.05;;;21.20;99.90;;;;;;5035542;28;20022;-85
2022/06/26 07:48:57;;;;;;;3.72;2.72;;;21.10;99.90;;;;;;5018934;28;20033;-86
2022/06/26 07:51:23;;;;;;;4.07;1.73;;;21.10;99.90;;;;;;5018733;28;20072;-85
2022/06/26 07:53:48;;;;;;;6.72;2.67;;;21.20;99.90;;;;;;5018665;28;20410;-85
2022/06/26 07:56:14;;;;;;;4.75;2.97;;;21.10;99.90;;;;;;5018853;28;20393;-85
2022/06/26 07:58:40;;;;;;;4.30;2.45;;;21.00;99.90;;;;;;5018090;28;20424;-86
2022/06/26 08:01:05;;;;;;;4.10;2.47;;;20.90;99.90;;;;;;5018830;28;20022;-86
2022/06/26 08:03:31;;;;;;;4.78;2.50;;;20.90;99.90;;;;;;5018485;28;20029;-87
2022/06/26 08:05:56;;;;;;;4.97;2.00;;;21.10;99.90;;;;;;5018591;28;20525;-87
2022/06/26 08:08:22;;;;;;;7.70;2.88;;;21.20;99.90;;;;;;5018562;28;20026;-86
2022/06/26 08:10:47;;;;;;;7.53;2.05;;;21.30;99.90;;;;;;5018775;28;20500;-86
2022/06/26 08:13:13;;;;;;;5.28;2.38;;;21.40;99.90;;;;;;5018436;28;20029;-86
2022/06/26 08:15:39;;;;;;;4.95;2.40;;;21.40;99.90;;;;;;5018552;28;20440;-85
2022/06/26 08:18:05;;;;;;;6.03;3.00;;;21.50;99.90;;;;;;5018311;28;20076;-85
2022/06/26 08:20:31;;;;;;;4.85;2.60;;;21.60;99.90;;;;;;5018285;28;20025;-86
2022/06/26 08:22:56;;;;;;;5.30;2.33;;;21.60;99.90;;;;;;5018134;28;20036;-85
2022/06/26 08:25:22;;;;;;;4.43;2.05;;;21.50;99.90;;;;;;5018219;28;20124;-86
2022/06/26 08:27:48;;;;;;;4.63;2.72;;;21.50;99.90;;;;;;5035948;28;20022;-87
2022/06/26 08:30:14;;;;;;;6.25;3.42;;;21.40;99.90;;;;;;5035707;28;20017;-86
2022/06/26 08:32:39;;;;;;;6.40;2.72;;;21.40;99.90;;;;;;5035787;28;20033;-85
2022/06/26 08:35:07;;;;;;;8.57;2.60;;;21.40;99.90;;;;;;5017933;28;20057;-86
2022/06/26 08:37:33;;;;;;;5.60;2.55;;;21.40;99.90;;;;;;5035452;28;20065;-85
2022/06/26 08:39:59;;;;;;;6.53;2.10;;;21.30;99.90;;;;;;5017976;28;20504;-86
2022/06/26 08:42:27;;;;;;;4.85;2.35;;;21.20;99.90;;;;;;5017579;28;20026;-86
2022/06/26 08:44:57;;;;;;;6.78;3.25;;;21.30;99.90;;;;;;5018065;28;20045;-86
2022/06/26 08:47:25;;;;;;;4.82;2.15;;;21.40;99.90;;;;;;5017772;28;20025;-86
2022/06/26 08:49:52;;;;;;;5.80;2.42;;;21.40;99.90;;;;;;5017770;28;20072;-86
2022/06/26 08:52:20;;;;;;;5.15;2.58;;;21.50;99.90;;;;;;5017720;28;20025;-86
2022/06/26 08:54:46;;;;;;;8.00;2.28;;;21.60;99.90;;;;;;5017698;28;20025;-85
2022/06/26 08:57:15;;;;;;;5.45;1.92;;;21.80;99.90;;;;;;5017661;28;20039;-85
2022/06/26 08:59:41;;;;;;;4.82;1.85;;;21.90;99.90;;;;;;5017400;28;20025;-85
2022/06/26 09:02:07;;;;;;;5.80;2.60;;;22.00;99.90;;;;;;5017581;28;20116;-85
2022/06/26 09:04:33;;;;;;;6.40;2.53;;;21.90;99.90;;;;;;5017661;28;20108;-85
2022/06/26 09:06:58;;;;;;;4.95;2.25;;;21.90;99.90;;;;;;5017691;28;20036;-85
2022/06/26 09:09:27;;;;;;;8.57;2.85;;;21.90;99.90;;;;;;5016502;28;20028;-86
2022/06/26 09:11:59;;;;;;;5.45;2.45;;;21.90;99.90;;;;;;5017374;28;20504;-86
2022/06/26 09:14:26;;;;;;;5.25;2.85;;;22.00;99.90;;;;;;5017533;28;20033;-85
2022/06/26 09:16:53;;;;;;;4.68;2.38;;;21.90;99.90;;;;;;5017128;28;20037;-86
2022/06/26 09:19:26;;;;;;;8.25;2.75;;;21.80;99.90;;;;;;5034629;28;20049;-86
2022/06/26 09:22:03;;;;;;;5.70;2.47;;;21.80;99.90;;;;;;5034760;28;20482;-85
2022/06/26 09:24:28;;;;;;;5.15;2.20;;;21.80;99.90;;;;;;5017143;28;20026;-85
2022/06/26 09:27:15;;;;;;;6.80;2.90;;;22.00;99.90;;;;;;5033413;28;20120;-85
2022/06/26 09:29:42;;;;;;;7.10;2.92;;;22.00;99.90;;;;;;5016902;28;20025;-85
2022/06/26 09:32:13;;;;;;;8.32;2.88;;;22.10;99.90;;;;;;5016821;28;20033;-85
2022/06/26 09:34:44;;;;;;;7.30;2.77;;;22.10;99.90;;;;;;5034282;28;20394;-85
2022/06/26 09:37:10;;;;;;;8.75;2.50;;;22.10;99.90;;;;;;5016438;28;20041;-85
2022/06/26 09:39:36;;;;;;;5.78;2.55;;;22.10;99.90;;;;;;5034184;28;20524;-85
2022/06/26 09:42:17;;;;;;;7.18;3.10;;;22.10;99.90;;;;;;5016756;28;20040;-85
2022/06/26 09:44:51;;;;;;;7.60;3.00;;;22.00;99.90;;;;;;5033140;28;20083;-85
2022/06/26 09:47:28;;;;;;;7.25;3.33;;;22.00;99.90;;;;;;5016595;28;20025;-85
2022/06/26 09:49:57;;;;;;;7.53;2.92;;;22.00;99.90;;;;;;5016462;28;20511;-85
2022/06/26 09:52:25;;;;;;;5.70;2.72;;;22.10;99.90;;;;;;5033992;28;20029;-85
2022/06/26 09:54:52;;;;;;;5.50;3.03;;;22.10;99.90;;;;;;5016655;28;20022;-85
2022/06/26 09:57:18;;;;;;;6.00;2.67;;;22.10;99.90;;;;;;5016171;28;20037;-86
2022/06/26 09:59:44;;;;;;;5.18;2.30;;;22.10;99.90;;;;;;5016474;28;20026;-86
2022/06/26 10:07:49;;;;;;;5.15;2.40;;;21.90;99.90;;;;;;5034079;28;20037;-85
2022/06/26 10:10:17;;;;;;;4.03;2.05;;;22.00;99.90;;;;;;5033938;28;20062;-86
2022/06/26 10:12:45;;;;;;;5.28;2.28;;;22.00;99.90;;;;;;5016221;28;20064;-85
2022/06/26 10:15:12;;;;;;;6.55;2.20;;;22.10;99.90;;;;;;5032661;28;20066;-85
2022/06/26 10:18:09;;;;;;;5.07;2.40;;;22.20;99.90;;;;;;5033896;28;20033;-85
2022/06/26 10:20:36;;;;;;;5.03;2.97;;;22.30;99.90;;;;;;5032630;28;20033;-85
2022/06/26 10:23:02;;;;;;;5.40;2.80;;;22.30;99.90;;;;;;5016109;28;20029;-86
2022/06/26 10:25:29;;;;;;;5.95;2.55;;;22.40;99.90;;;;;;5016253;28;20027;-86
2022/06/26 10:27:56;;;;;;;5.25;2.47;;;22.40;99.90;;;;;;5016277;28;20416;-85
2022/06/26 10:30:23;;;;;;;6.22;2.60;;;22.30;99.90;;;;;;5016138;28;20022;-85
2022/06/26 10:33:16;;;;;;;6.35;2.33;;;22.30;99.90;;;;;;5016078;28;20026;-85
2022/06/26 10:35:47;;;;;;;5.93;2.28;;;22.40;99.90;;;;;;5033243;28;20072;-85
2022/06/26 10:38:24;;;;;;;4.63;2.03;;;22.50;99.90;;;;;;5033566;28;20033;-85
2022/06/26 10:43:55;;;;;;;4.00;1.80;;;22.60;99.90;;;;;;5033830;28;20488;-86
2022/06/26 10:46:21;;;;;;;3.40;1.95;;;22.70;99.90;;;;;;5015983;28;20033;-86
2022/06/26 10:48:55;;;;;;;4.38;1.75;;;22.70;99.90;;;;;;5016041;28;20026;-85
2022/06/26 10:51:29;;;;;;;4.55;1.48;;;22.70;99.90;;;;;;5015981;28;20030;-85
2022/06/26 10:53:56;;;;;;;2.92;1.38;;;22.80;99.90;;;;;;5015964;28;20508;-86
2022/06/26 10:56:22;;;;;;;8.25;1.88;;;22.80;99.90;;;;;;5015956;28;20037;-85
2022/06/26 10:58:48;;;;;;;3.25;1.13;;;22.90;99.90;;;;;;5015930;28;20367;-86
2022/06/26 11:01:16;;;;;;;3.00;1.10;;;23.00;99.40;;;;;;5015724;28;20032;-85
2022/06/26 11:03:43;;;;;;;3.28;1.40;;;23.00;98.90;;;;;;5015769;28;20033;-85
2022/06/26 11:06:11;;;;;;;3.83;1.13;;;23.00;98.90;;;;;;5015409;28;20021;-85
2022/06/26 11:08:48;;;;;;;5.25;1.23;;;23.10;98.90;;;;;;5016074;28;20079;-86
2022/06/26 11:11:20;;;;;;;4.25;1.13;;;23.10;98.70;;;;;;5015942;28;20037;-85
2022/06/26 11:13:50;;;;;;;;;;;23.00;98.80;;;;;;5016377;28;20116;-86
2022/06/26 11:16:17;;;;;;;4.13;0.70;;;23.00;98.60;;;;;;5015390;28;19913;-85
2022/06/26 11:18:42;;;;;;;2.35;0.80;;;22.90;98.30;;;;;;5015523;28;20033;-86
2022/06/26 11:21:08;;;;;;;2.45;1.00;;;22.90;98.20;;;;;;5015445;28;20033;-85
2022/06/26 11:23:36;;;;;;;2.67;0.90;;;22.90;98.40;;;;;;5015744;28;20036;-86
2022/06/26 11:26:09;;;;;;;3.45;0.93;;;23.00;98.20;;;;;;5033173;28;20025;-85
2022/06/26 11:28:43;;;;;;;3.83;1.00;;;23.00;98.00;;;;;;5015756;28;20029;-86
2022/06/26 11:31:13;;;;;;;2.65;1.17;;;23.10;97.90;;;;;;5015813;28;20036;-85
2022/06/26 11:33:43;;;;;;;4.47;1.42;;;23.00;97.80;;;;;;5036096;28;20018;-85
2022/06/26 11:36:11;;;;;;;3.97;0.95;;;22.90;98.30;;;;;;5018775;28;20057;-86
2022/06/26 11:38:37;;;;;;;1.70;0.70;;;22.90;98.40;;;;;;5035559;28;20060;-85
2022/06/26 11:41:05;;;;;;;3.63;1.08;;;23.00;98.00;;;;;;5035498;28;20107;-85
2022/06/26 11:43:31;;;;;;;3.30;0.90;;;23.00;97.60;;;;;;5036356;28;20033;-86
2022/06/26 11:45:58;;;;;;;3.42;0.98;;;23.10;97.50;;;;;;5036293;28;20032;-86
2022/06/26 11:48:24;;;;;;;4.75;0.85;;;23.10;97.20;;;;;;5019295;28;20380;-85
2022/06/26 11:50:52;;;;;;;5.45;0.80;;;23.10;96.90;;;;;;5035343;28;20398;-85
2022/06/26 11:53:26;;;;;;;3.50;0.90;;;23.10;97.00;;;;;;5035311;28;20568;-85
2022/06/26 11:55:58;;;;;;;7.53;1.23;;;23.30;96.70;;;;;;5035364;28;20029;-86
2022/06/26 11:58:27;;;;;;;4.28;0.88;;;23.40;96.70;;;;;;5035312;28;20089;-85
2022/06/26 12:01:08;;;;;;;3.40;1.00;;;23.30;96.30;;;;;;5035148;28;20021;-86
2022/06/26 12:03:34;;;;;;;3.70;1.07;;;23.20;95.90;;;;;;5035168;28;20056;-86
2022/06/26 12:06:01;;;;;;;4.85;1.13;;;22.90;95.90;;;;;;5035093;28;20028;-85
2022/06/26 12:08:29;;;;;;;4.63;1.40;;;22.80;96.10;;;;;;5035201;28;20026;-86
2022/06/26 12:10:55;;;;;;;4.32;1.45;;;22.60;96.60;;;;;;5034776;28;20083;-86
2022/06/26 12:13:26;;;;;;;3.95;1.58;;;22.40;96.90;;;;;;5018746;28;20120;-86
2022/06/26 12:15:52;;;;;;;5.18;1.15;;;22.30;97.20;;;;;;5034934;28;20029;-86
2022/06/26 12:18:17;;;;;;;2.25;1.08;;;22.20;97.60;;;;;;5035115;28;20099;-86
2022/06/26 12:20:43;;;;;;;5.18;0.82;;;22.20;97.60;;;;;;5034846;28;20103;-85
2022/06/26 12:23:10;;;;;;;3.15;1.00;;;22.10;97.50;;;;;;5034736;28;20400;-86
2022/06/26 12:25:38;;;;;;;2.97;0.90;;;22.20;97.60;;;;;;5034923;28;20021;-86
2022/06/26 12:28:04;;;;;;;3.13;1.33;;;22.20;97.50;;;;;;5035878;28;20527;-86
2022/06/26 12:30:33;;;;;;;5.90;1.45;;;22.20;97.70;;;;;;5034840;28;20025;-86
2022/06/26 12:33:00;;;;;;;3.78;0.90;;;22.10;97.70;;;;;;5034895;28;20036;-86
2022/06/26 12:35:27;;;;;;;4.75;1.33;;;22.00;97.70;;;;;;5035165;28;20038;-86
2022/06/26 12:37:55;;;;;;;4.35;1.05;;;21.80;97.70;;;;;;5037689;28;20044;-86
2022/06/26 12:40:21;;;;;;;3.20;1.38;;;21.60;97.80;;;;;;5037861;28;20033;-86
2022/06/26 12:42:47;;;;;;;4.38;1.20;;;21.40;98.00;;;;;;5038090;28;20021;-86
2022/06/26 12:45:13;;;;;;;4.00;1.20;;;21.30;98.50;;;;;;5054187;28;20025;-85
2022/06/26 12:47:39;;;;;;;4.00;0.90;;;21.20;98.70;;;;;;5037888;28;20029;-85
2022/06/26 12:50:05;;;;;;;5.22;1.40;;;21.30;99.30;;;;;;5037966;28;20021;-86
2022/06/26 12:52:32;;;;;;;3.28;1.58;;;21.20;99.10;;;;;;5037431;28;20029;-86